Time;durP1;ratioP1;P1;durP2;ratioP2;P2;SDS_P1;SDS_P2;PMS_P1;PMS_P2;Temp;Humidity;BMP_temperature;BMP_pressure;BME280_temperature;BME280_humidity;BME280_pressure;Samples;Min_cycle;Max_cycle;Signal;HPM_P1;HPM_P2
2024/01/24 00:01:45;;;;;;;6.60;2.10;;;;;;;;;;4994670;28;20434;-80
2024/01/24 00:04:10;;;;;;;5.43;2.40;;;;;;;;;;4977353;28;20294;-81
2024/01/24 00:06:36;;;;;;;4.90;2.30;;;;;;;;;;4992739;28;20284;-80
2024/01/24 00:09:01;;;;;;;6.83;2.70;;;;;;;;;;4977084;28;20232;-80
2024/01/24 00:11:27;;;;;;;7.70;2.40;;;;;;;;;;4966023;28;20180;-80
2024/01/24 00:13:52;;;;;;;6.77;2.60;;;;;;;;;;4987152;28;20267;-80
2024/01/24 00:16:17;;;;;;;5.47;1.83;;;;;;;;;;4995901;28;20254;-79
2024/01/24 00:18:43;;;;;;;7.57;2.00;;;;;;;;;;4992636;28;20244;-80
2024/01/24 00:21:08;;;;;;;6.00;2.53;;;;;;;;;;4977412;28;20185;-79
2024/01/24 00:23:33;;;;;;;3.77;1.90;;;;;;;;;;4980984;28;20183;-80
2024/01/24 00:25:58;;;;;;;6.47;1.90;;;;;;;;;;4978562;28;20191;-80
2024/01/24 00:28:26;;;;;;;6.87;2.70;;;;;;;;;;4995390;28;20230;-80
2024/01/24 00:30:51;;;;;;;6.10;2.67;;;;;;;;;;4996905;28;20176;-80
2024/01/24 00:33:16;;;;;;;4.13;2.27;;;;;;;;;;4995817;28;20274;-80
2024/01/24 00:35:42;;;;;;;4.70;1.80;;;;;;;;;;4994623;28;20194;-80
2024/01/24 00:38:07;;;;;;;5.93;2.10;;;;;;;;;;4977103;28;20244;-80
2024/01/24 00:40:32;;;;;;;5.57;2.30;;;;;;;;;;4994047;28;20184;-80
2024/01/24 00:43:00;;;;;;;6.40;2.87;;;;;;;;;;4998848;28;20207;-79
2024/01/24 00:45:25;;;;;;;6.27;2.20;;;;;;;;;;4995380;28;20286;-80
2024/01/24 00:47:50;;;;;;;3.60;2.10;;;;;;;;;;4975450;28;20342;-80
2024/01/24 00:50:16;;;;;;;3.97;2.33;;;;;;;;;;4993962;28;20253;-80
2024/01/24 00:52:41;;;;;;;2.73;1.97;;;;;;;;;;4977939;28;20173;-80
2024/01/24 00:55:06;;;;;;;4.20;2.40;;;;;;;;;;4993292;28;20177;-79
2024/01/24 00:57:31;;;;;;;4.30;2.20;;;;;;;;;;4979444;28;20191;-80
2024/01/24 00:59:57;;;;;;;6.60;2.10;;;;;;;;;;4998034;28;20185;-79
2024/01/24 01:02:22;;;;;;;3.13;2.10;;;;;;;;;;4992490;28;20199;-79
2024/01/24 01:04:49;;;;;;;3.60;2.53;;;;;;;;;;4975924;28;20295;-80
2024/01/24 01:07:14;;;;;;;6.07;2.33;;;;;;;;;;4997103;28;20173;-79
2024/01/24 01:09:40;;;;;;;3.73;2.00;;;;;;;;;;4999267;28;20288;-81
2024/01/24 01:12:05;;;;;;;5.23;2.07;;;;;;;;;;4976472;28;20238;-79
2024/01/24 01:14:31;;;;;;;2.57;2.07;;;;;;;;;;4998781;28;20176;-81
2024/01/24 01:16:56;;;;;;;4.90;2.17;;;;;;;;;;4978922;28;20180;-79
2024/01/24 01:19:21;;;;;;;3.60;1.70;;;;;;;;;;4990930;28;20190;-80
2024/01/24 01:21:47;;;;;;;3.17;2.23;;;;;;;;;;4993850;28;20210;-80
2024/01/24 01:24:12;;;;;;;5.63;1.93;;;;;;;;;;4974946;28;20211;-80
2024/01/24 01:26:37;;;;;;;5.17;2.23;;;;;;;;;;4991222;28;20231;-80
2024/01/24 01:29:02;;;;;;;3.10;2.43;;;;;;;;;;4990184;28;20185;-79
2024/01/24 01:31:28;;;;;;;2.03;1.60;;;;;;;;;;4975521;28;20191;-80
2024/01/24 01:33:53;;;;;;;3.67;1.63;;;;;;;;;;4995687;28;20195;-79
2024/01/24 01:36:19;;;;;;;2.77;1.67;;;;;;;;;;4991799;28;20215;-80
2024/01/24 01:38:44;;;;;;;3.67;1.77;;;;;;;;;;4974393;28;20229;-79
2024/01/24 01:41:09;;;;;;;3.37;1.90;;;;;;;;;;4982535;28;20246;-80
2024/01/24 01:43:34;;;;;;;4.57;2.07;;;;;;;;;;4977963;28;20188;-80
2024/01/24 01:46:04;;;;;;;4.23;2.00;;;;;;;;;;4992301;28;20191;-80
2024/01/24 01:48:29;;;;;;;3.30;2.03;;;;;;;;;;4993450;28;20187;-80
2024/01/24 01:50:55;;;;;;;6.37;2.20;;;;;;;;;;4994994;28;20185;-80
2024/01/24 01:53:20;;;;;;;5.80;2.00;;;;;;;;;;4990956;28;20251;-80
2024/01/24 01:55:45;;;;;;;3.07;1.60;;;;;;;;;;4992355;28;20180;-80
2024/01/24 01:58:11;;;;;;;4.17;1.80;;;;;;;;;;4974343;28;20188;-80
2024/01/24 02:00:36;;;;;;;4.80;1.90;;;;;;;;;;4977181;28;20259;-80
2024/01/24 02:03:01;;;;;;;4.97;1.60;;;;;;;;;;4989765;28;20187;-79
2024/01/24 02:05:27;;;;;;;3.57;1.50;;;;;;;;;;4995753;28;20211;-80
2024/01/24 02:07:53;;;;;;;5.37;2.30;;;;;;;;;;4995316;28;20268;-79
2024/01/24 02:10:18;;;;;;;4.10;2.23;;;;;;;;;;5008011;28;20247;-81
2024/01/24 02:12:43;;;;;;;4.37;1.83;;;;;;;;;;4992331;28;20176;-80
2024/01/24 02:15:09;;;;;;;6.07;2.00;;;;;;;;;;4968987;28;20184;-80
2024/01/24 02:17:35;;;;;;;4.97;2.17;;;;;;;;;;4989169;28;20181;-80
2024/01/24 02:20:00;;;;;;;5.50;2.00;;;;;;;;;;4994504;28;20195;-80
2024/01/24 02:22:26;;;;;;;3.00;1.70;;;;;;;;;;4990555;28;20269;-80
2024/01/24 02:24:51;;;;;;;4.00;2.10;;;;;;;;;;4974029;28;20261;-80
2024/01/24 02:27:17;;;;;;;4.60;2.00;;;;;;;;;;4972907;28;20180;-80
2024/01/24 02:29:42;;;;;;;2.53;1.70;;;;;;;;;;4977018;28;20203;-80
2024/01/24 02:32:07;;;;;;;2.67;2.27;;;;;;;;;;4977798;28;20182;-79
2024/01/24 02:34:32;;;;;;;3.23;1.50;;;;;;;;;;4974536;28;20207;-80
2024/01/24 02:36:57;;;;;;;3.87;1.60;;;;;;;;;;4992334;28;20185;-80
2024/01/24 02:39:23;;;;;;;3.67;2.20;;;;;;;;;;4977498;28;20212;-80
2024/01/24 02:41:48;;;;;;;3.33;2.20;;;;;;;;;;4975889;28;20275;-80
2024/01/24 02:44:13;;;;;;;3.93;2.20;;;;;;;;;;4974030;28;20209;-79
2024/01/24 02:46:38;;;;;;;3.73;1.90;;;;;;;;;;4993014;28;20251;-79
2024/01/24 02:49:04;;;;;;;2.10;1.90;;;;;;;;;;4996155;28;20235;-80
2024/01/24 02:51:29;;;;;;;4.63;2.03;;;;;;;;;;4980837;28;20324;-80
2024/01/24 02:53:54;;;;;;;5.73;2.03;;;;;;;;;;5008279;28;20188;-79
2024/01/24 02:56:20;;;;;;;4.03;1.73;;;;;;;;;;4974698;28;20223;-80
2024/01/24 02:58:45;;;;;;;4.43;1.87;;;;;;;;;;4992254;28;20175;-80
2024/01/24 03:01:11;;;;;;;2.40;1.90;;;;;;;;;;4990881;28;20242;-80
2024/01/24 03:03:39;;;;;;;3.77;1.80;;;;;;;;;;4992492;28;20190;-80
2024/01/24 03:06:04;;;;;;;4.07;2.27;;;;;;;;;;4976322;28;20205;-79
2024/01/24 03:08:29;;;;;;;2.57;1.47;;;;;;;;;;4989162;28;20176;-80
2024/01/24 03:10:54;;;;;;;5.20;1.90;;;;;;;;;;4973927;28;20280;-79
2024/01/24 03:13:20;;;;;;;3.00;2.23;;;;;;;;;;4994220;28;20184;-80
2024/01/24 03:15:45;;;;;;;4.23;1.70;;;;;;;;;;4980880;28;20180;-79
2024/01/24 03:18:10;;;;;;;2.77;1.87;;;;;;;;;;4978582;28;20182;-80
2024/01/24 03:20:36;;;;;;;2.97;1.77;;;;;;;;;;4989521;28;20267;-80
2024/01/24 03:23:01;;;;;;;4.57;1.77;;;;;;;;;;4977909;28;20188;-80
2024/01/24 03:25:28;;;;;;;2.23;1.80;;;;;;;;;;4970860;28;20244;-80
2024/01/24 03:27:53;;;;;;;5.13;2.07;;;;;;;;;;4989842;28;20262;-79
2024/01/24 03:30:18;;;;;;;2.27;1.77;;;;;;;;;;4992293;28;20168;-80
2024/01/24 03:32:44;;;;;;;3.90;2.10;;;;;;;;;;4991718;28;20180;-80
2024/01/24 03:35:10;;;;;;;3.50;2.10;;;;;;;;;;4990482;28;20192;-80
2024/01/24 03:37:35;;;;;;;4.60;1.80;;;;;;;;;;4994421;28;20219;-81
2024/01/24 03:40:00;;;;;;;1.83;1.60;;;;;;;;;;4974524;28;20373;-80
2024/01/24 03:42:25;;;;;;;4.03;1.77;;;;;;;;;;4991542;28;20180;-80
2024/01/24 03:44:51;;;;;;;3.33;2.00;;;;;;;;;;4973087;28;20204;-80
2024/01/24 03:47:16;;;;;;;2.83;2.17;;;;;;;;;;4989932;28;20210;-80
2024/01/24 03:49:41;;;;;;;4.93;2.03;;;;;;;;;;4993946;28;20176;-80
2024/01/24 03:52:06;;;;;;;3.87;2.40;;;;;;;;;;4979709;28;20185;-80
2024/01/24 03:54:31;;;;;;;3.83;1.90;;;;;;;;;;4994170;28;20176;-80
2024/01/24 03:56:57;;;;;;;4.33;2.10;;;;;;;;;;4990442;28;20236;-80
2024/01/24 03:59:22;;;;;;;5.73;2.33;;;;;;;;;;4988233;28;20188;-79
2024/01/24 04:01:48;;;;;;;5.33;2.10;;;;;;;;;;4991112;28;20189;-81
2024/01/24 04:04:13;;;;;;;5.73;2.43;;;;;;;;;;4978366;28;20247;-80
2024/01/24 04:06:38;;;;;;;2.60;1.87;;;;;;;;;;4988656;28;20177;-79
2024/01/24 04:09:03;;;;;;;3.17;2.07;;;;;;;;;;4992719;28;20226;-80
2024/01/24 04:11:29;;;;;;;5.00;2.40;;;;;;;;;;4989517;28;20189;-81
2024/01/24 04:13:55;;;;;;;6.73;2.13;;;;;;;;;;4994325;28;20189;-79
2024/01/24 04:16:20;;;;;;;3.47;2.57;;;;;;;;;;4989972;28;20183;-81
2024/01/24 04:18:46;;;;;;;4.90;1.97;;;;;;;;;;4993289;28;20189;-80
2024/01/24 04:21:11;;;;;;;4.70;1.93;;;;;;;;;;4967298;28;20255;-80
2024/01/24 04:23:36;;;;;;;3.87;2.20;;;;;;;;;;4994000;28;20180;-80
2024/01/24 04:26:04;;;;;;;4.10;2.20;;;;;;;;;;4999025;28;20188;-80
2024/01/24 04:28:33;;;;;;;3.90;2.10;;;;;;;;;;4979208;28;20491;-79
2024/01/24 04:30:58;;;;;;;3.30;2.10;;;;;;;;;;4976437;28;20251;-81
2024/01/24 04:33:23;;;;;;;4.37;2.20;;;;;;;;;;4997158;28;20184;-80
2024/01/24 04:35:48;;;;;;;3.50;2.23;;;;;;;;;;4993390;28;20244;-80
2024/01/24 04:38:14;;;;;;;3.30;2.27;;;;;;;;;;4976212;28;20235;-80
2024/01/24 04:40:39;;;;;;;2.30;2.10;;;;;;;;;;4996636;28;20179;-80
2024/01/24 04:43:04;;;;;;;3.37;2.30;;;;;;;;;;4995180;28;20294;-80
2024/01/24 04:45:29;;;;;;;1.80;1.70;;;;;;;;;;4993215;28;20204;-80
2024/01/24 04:47:55;;;;;;;3.57;1.93;;;;;;;;;;4995923;28;20176;-80
2024/01/24 04:50:21;;;;;;;3.63;2.50;;;;;;;;;;4996459;28;20183;-80
2024/01/24 04:52:46;;;;;;;2.47;1.90;;;;;;;;;;4989596;28;20187;-81
2024/01/24 04:55:12;;;;;;;3.00;2.07;;;;;;;;;;5002594;28;20180;-79
2024/01/24 04:57:38;;;;;;;2.93;2.00;;;;;;;;;;4992603;28;20172;-80
2024/01/24 05:00:07;;;;;;;5.50;2.47;;;;;;;;;;4976300;28;20188;-80
2024/01/24 05:02:33;;;;;;;3.87;1.93;;;;;;;;;;4992433;28;20284;-81
2024/01/24 05:04:58;;;;;;;3.80;2.30;;;;;;;;;;4990068;28;20287;-80
2024/01/24 05:07:23;;;;;;;2.63;1.90;;;;;;;;;;4981188;28;20176;-80
2024/01/24 05:09:49;;;;;;;2.77;1.90;;;;;;;;;;4993163;28;20243;-80
2024/01/24 05:12:14;;;;;;;3.27;1.80;;;;;;;;;;4977018;28;20212;-81
2024/01/24 05:14:40;;;;;;;3.73;1.93;;;;;;;;;;4976615;28;20232;-80
2024/01/24 05:17:05;;;;;;;2.83;2.00;;;;;;;;;;4975922;28;20184;-80
2024/01/24 05:19:36;;;;;;;2.27;1.90;;;;;;;;;;4979203;28;20183;-80
2024/01/24 05:22:02;;;;;;;3.20;1.97;;;;;;;;;;4991940;28;20177;-80
2024/01/24 05:24:27;;;;;;;2.23;1.63;;;;;;;;;;4991918;28;20211;-81
2024/01/24 05:26:52;;;;;;;3.50;1.57;;;;;;;;;;4966885;28;20191;-80
2024/01/24 05:29:17;;;;;;;2.77;1.40;;;;;;;;;;4976943;28;20188;-80
2024/01/24 05:31:43;;;;;;;2.30;1.33;;;;;;;;;;4996850;28;20183;-81
2024/01/24 05:34:08;;;;;;;2.97;1.53;;;;;;;;;;4991958;28;20223;-79
2024/01/24 05:36:34;;;;;;;1.90;1.63;;;;;;;;;;4999610;28;20189;-82
2024/01/24 05:38:59;;;;;;;1.60;1.50;;;;;;;;;;4974968;28;20192;-80
2024/01/24 05:41:24;;;;;;;1.77;1.67;;;;;;;;;;5001191;28;20184;-81
2024/01/24 05:43:50;;;;;;;1.70;1.20;;;;;;;;;;5004428;28;20287;-80
2024/01/24 05:46:15;;;;;;;1.60;1.10;;;;;;;;;;4975473;28;20189;-81
2024/01/24 05:48:40;;;;;;;1.40;1.30;;;;;;;;;;4979717;28;20176;-80
2024/01/24 05:51:05;;;;;;;2.27;1.20;;;;;;;;;;4974805;28;20328;-81
2024/01/24 05:53:31;;;;;;;2.63;1.27;;;;;;;;;;4975943;28;20180;-80
2024/01/24 05:55:56;;;;;;;2.60;1.30;;;;;;;;;;4992085;28;20258;-80
2024/01/24 05:58:21;;;;;;;1.50;1.40;;;;;;;;;;4977803;28;20184;-81
2024/01/24 06:00:47;;;;;;;1.20;1.10;;;;;;;;;;4997610;28;20184;-80
2024/01/24 06:03:12;;;;;;;1.03;1.03;;;;;;;;;;4977794;28;20247;-79
2024/01/24 06:05:37;;;;;;;1.20;0.90;;;;;;;;;;4982403;28;20194;-76
2024/01/24 06:08:05;;;;;;;1.10;1.00;;;;;;;;;;4992441;28;20181;-76
2024/01/24 06:10:33;;;;;;;0.80;0.80;;;;;;;;;;4994690;28;21352;-76
2024/01/24 06:12:58;;;;;;;0.80;0.80;;;;;;;;;;4975017;28;20180;-76
2024/01/24 06:15:23;;;;;;;0.73;0.73;;;;;;;;;;4994027;28;20251;-76
2024/01/24 06:17:48;;;;;;;1.00;0.90;;;;;;;;;;4988267;28;20188;-76
2024/01/24 06:20:14;;;;;;;1.47;1.03;;;;;;;;;;4972561;28;20189;-76
2024/01/24 06:22:40;;;;;;;0.90;0.90;;;;;;;;;;4994026;28;20218;-76
2024/01/24 06:25:07;;;;;;;0.80;0.80;;;;;;;;;;4989444;28;20246;-76
2024/01/24 06:27:32;;;;;;;1.13;1.00;;;;;;;;;;4993836;28;20213;-76
2024/01/24 06:29:57;;;;;;;1.30;0.70;;;;;;;;;;4992256;28;20206;-76
2024/01/24 06:32:23;;;;;;;0.70;0.70;;;;;;;;;;4995386;28;20164;-76
2024/01/24 06:34:48;;;;;;;0.70;0.70;;;;;;;;;;4998325;28;20264;-76
2024/01/24 06:37:14;;;;;;;1.13;1.00;;;;;;;;;;4995220;28;20176;-76
2024/01/24 06:39:39;;;;;;;1.00;0.90;;;;;;;;;;4996561;28;20168;-76
2024/01/24 06:42:04;;;;;;;1.07;0.97;;;;;;;;;;4977279;28;20187;-76
2024/01/24 06:44:29;;;;;;;1.40;1.30;;;;;;;;;;4974398;28;20222;-77
2024/01/24 06:46:54;;;;;;;0.90;0.60;;;;;;;;;;4997869;28;20188;-76
2024/01/24 06:49:20;;;;;;;1.30;0.90;;;;;;;;;;4995054;28;20180;-76
2024/01/24 06:51:45;;;;;;;1.43;1.17;;;;;;;;;;4996625;28;20169;-76
2024/01/24 06:54:12;;;;;;;1.00;0.90;;;;;;;;;;4991096;28;20182;-76
2024/01/24 06:56:37;;;;;;;2.50;1.10;;;;;;;;;;4998272;28;20257;-76
2024/01/24 06:59:03;;;;;;;2.07;1.30;;;;;;;;;;4989835;28;20271;-75
2024/01/24 07:01:28;;;;;;;1.20;1.03;;;;;;;;;;4993428;28;20181;-76
2024/01/24 07:03:53;;;;;;;2.63;2.10;;;;;;;;;;4997940;28;20251;-76
2024/01/24 07:06:18;;;;;;;3.17;2.87;;;;;;;;;;4981649;28;20176;-76
2024/01/24 07:08:43;;;;;;;6.50;4.27;;;;;;;;;;5001940;28;20236;-76
2024/01/24 07:11:09;;;;;;;2.13;1.50;;;;;;;;;;4973662;28;20183;-75
2024/01/24 07:13:34;;;;;;;2.83;1.50;;;;;;;;;;4992336;28;20166;-76
2024/01/24 07:16:04;;;;;;;1.47;1.10;;;;;;;;;;4984062;28;20196;-76
2024/01/24 07:18:29;;;;;;;3.23;1.60;;;;;;;;;;4991320;28;20213;-75
2024/01/24 07:20:54;;;;;;;2.70;2.00;;;;;;;;;;4997598;28;20189;-76
2024/01/24 07:23:20;;;;;;;2.00;1.20;;;;;;;;;;4975921;28;20320;-76
2024/01/24 07:25:45;;;;;;;1.27;1.13;;;;;;;;;;4990803;28;20202;-76
2024/01/24 07:28:10;;;;;;;1.07;0.90;;;;;;;;;;4993389;28;20180;-75
2024/01/24 07:30:35;;;;;;;0.80;0.80;;;;;;;;;;4980890;28;20169;-76
2024/01/24 07:33:03;;;;;;;1.33;1.10;;;;;;;;;;4993895;28;20172;-76
2024/01/24 07:35:28;;;;;;;0.70;0.70;;;;;;;;;;4973632;28;20205;-76
2024/01/24 07:37:54;;;;;;;1.17;0.80;;;;;;;;;;4989686;28;20220;-76
2024/01/24 07:40:19;;;;;;;2.00;1.30;;;;;;;;;;5004578;28;20196;-75
2024/01/24 07:42:44;;;;;;;0.60;0.60;;;;;;;;;;5002995;28;20203;-76
2024/01/24 07:45:09;;;;;;;0.57;0.57;;;;;;;;;;4990968;28;20202;-76
2024/01/24 07:47:35;;;;;;;0.63;0.53;;;;;;;;;;4992476;28;20175;-76
2024/01/24 07:50:00;;;;;;;0.50;0.50;;;;;;;;;;5000790;28;20290;-76
2024/01/24 07:52:25;;;;;;;0.53;0.53;;;;;;;;;;4999215;28;20176;-76
2024/01/24 07:54:50;;;;;;;0.30;0.30;;;;;;;;;;4996773;28;20172;-76
2024/01/24 07:57:16;;;;;;;0.60;0.50;;;;;;;;;;4992682;28;20241;-76
2024/01/24 07:59:41;;;;;;;0.63;0.60;;;;;;;;;;4997478;28;20178;-75
2024/01/24 08:02:06;;;;;;;0.63;0.40;;;;;;;;;;4977760;28;20188;-76
2024/01/24 08:04:32;;;;;;;0.40;0.40;;;;;;;;;;4977688;28;20197;-76
2024/01/24 08:06:57;;;;;;;0.47;0.47;;;;;;;;;;4993174;28;20263;-76
2024/01/24 08:09:22;;;;;;;0.57;0.57;;;;;;;;;;4997963;28;20227;-76
2024/01/24 08:11:47;;;;;;;1.13;0.47;;;;;;;;;;4995502;28;20184;-76
2024/01/24 08:14:13;;;;;;;0.30;0.30;;;;;;;;;;4993320;28;20214;-76
2024/01/24 08:16:38;;;;;;;0.37;0.37;;;;;;;;;;4995932;28;20177;-76
2024/01/24 08:19:03;;;;;;;1.07;1.00;;;;;;;;;;4998697;28;20272;-76
2024/01/24 08:21:28;;;;;;;0.40;0.40;;;;;;;;;;4998923;28;20204;-76
2024/01/24 08:23:53;;;;;;;0.50;0.50;;;;;;;;;;4994583;28;20190;-76
2024/01/24 08:26:19;;;;;;;0.40;0.40;;;;;;;;;;5000176;28;20200;-76
2024/01/24 08:28:44;;;;;;;0.40;0.40;;;;;;;;;;4996289;28;20311;-76
2024/01/24 08:31:09;;;;;;;0.70;0.70;;;;;;;;;;4996829;28;20206;-76
2024/01/24 08:33:35;;;;;;;0.50;0.50;;;;;;;;;;4995288;28;20198;-75
2024/01/24 08:36:00;;;;;;;0.63;0.50;;;;;;;;;;4994010;28;20189;-76
2024/01/24 08:38:25;;;;;;;0.50;0.50;;;;;;;;;;4977704;28;20189;-76
2024/01/24 08:40:50;;;;;;;0.70;0.67;;;;;;;;;;4976385;28;20244;-76
2024/01/24 08:43:16;;;;;;;0.97;0.53;;;;;;;;;;4979079;28;20185;-76
2024/01/24 08:45:41;;;;;;;0.30;0.30;;;;;;;;;;4994020;28;20205;-76
2024/01/24 08:48:07;;;;;;;0.57;0.57;;;;;;;;;;4998985;28;20213;-75
2024/01/24 08:50:32;;;;;;;0.40;0.40;;;;;;;;;;4998203;28;20216;-76
2024/01/24 08:52:57;;;;;;;1.17;1.07;;;;;;;;;;4994111;28;20172;-76
2024/01/24 08:55:22;;;;;;;1.50;1.40;;;;;;;;;;4979552;28;20253;-76
2024/01/24 08:57:48;;;;;;;4.27;2.57;;;;;;;;;;4993710;28;20339;-76
2024/01/24 09:00:14;;;;;;;2.63;1.50;;;;;;;;;;5000580;28;20186;-76
2024/01/24 09:02:39;;;;;;;2.70;1.37;;;;;;;;;;4992291;28;20172;-76
2024/01/24 09:05:05;;;;;;;0.53;0.53;;;;;;;;;;4994481;28;20207;-76
2024/01/24 09:07:30;;;;;;;2.87;1.77;;;;;;;;;;4978943;28;20200;-76
2024/01/24 09:09:56;;;;;;;2.17;1.40;;;;;;;;;;4997197;28;20292;-76
2024/01/24 09:12:21;;;;;;;1.03;0.50;;;;;;;;;;4999855;28;20182;-76
2024/01/24 09:14:47;;;;;;;0.73;0.70;;;;;;;;;;4979089;28;20182;-76
2024/01/24 09:17:12;;;;;;;0.83;0.83;;;;;;;;;;4997827;28;20208;-76
2024/01/24 09:19:37;;;;;;;0.80;0.70;;;;;;;;;;4995075;28;20177;-76
2024/01/24 09:22:02;;;;;;;0.50;0.50;;;;;;;;;;4976457;28;20173;-76
2024/01/24 09:24:28;;;;;;;0.63;0.63;;;;;;;;;;4975237;28;20216;-76
2024/01/24 09:26:53;;;;;;;0.30;0.30;;;;;;;;;;4993331;28;20174;-76
2024/01/24 09:29:18;;;;;;;0.57;0.57;;;;;;;;;;4998852;28;20299;-76
2024/01/24 09:31:45;;;;;;;0.30;0.30;;;;;;;;;;4993183;28;20182;-76
2024/01/24 09:34:11;;;;;;;0.70;0.70;;;;;;;;;;4992850;28;20181;-76
2024/01/24 09:36:36;;;;;;;0.40;0.40;;;;;;;;;;4991224;28;20186;-76
2024/01/24 09:39:02;;;;;;;0.30;0.30;;;;;;;;;;4991339;28;20185;-76
2024/01/24 09:41:31;;;;;;;0.47;0.47;;;;;;;;;;4995274;28;20188;-76
2024/01/24 09:43:57;;;;;;;0.60;0.60;;;;;;;;;;4993008;28;20184;-76
2024/01/24 09:46:22;;;;;;;0.77;0.30;;;;;;;;;;4993575;28;20175;-76
2024/01/24 09:48:47;;;;;;;0.30;0.30;;;;;;;;;;4993060;28;20182;-76
2024/01/24 09:51:13;;;;;;;0.50;0.50;;;;;;;;;;5000858;28;20168;-76
2024/01/24 09:53:38;;;;;;;0.30;0.30;;;;;;;;;;4991812;28;20176;-76
2024/01/24 09:56:04;;;;;;;0.27;0.27;;;;;;;;;;4973396;28;20185;-76
2024/01/24 09:58:29;;;;;;;0.20;0.20;;;;;;;;;;4991959;28;20183;-75
2024/01/24 10:00:55;;;;;;;0.20;0.20;;;;;;;;;;4992632;28;20196;-76
2024/01/24 10:03:21;;;;;;;0.30;0.30;;;;;;;;;;4975272;28;20181;-76
2024/01/24 10:05:48;;;;;;;0.30;0.30;;;;;;;;;;4996965;28;20291;-75
2024/01/24 10:08:15;;;;;;;0.20;0.20;;;;;;;;;;4995643;28;20176;-76
2024/01/24 10:10:42;;;;;;;0.33;0.33;;;;;;;;;;4992754;28;20290;-76
2024/01/24 10:13:07;;;;;;;0.23;0.23;;;;;;;;;;4995820;28;20188;-76
2024/01/24 10:15:34;;;;;;;0.20;0.20;;;;;;;;;;4977639;28;20180;-76
2024/01/24 10:18:00;;;;;;;0.40;0.40;;;;;;;;;;4995221;28;20192;-76
2024/01/24 10:20:26;;;;;;;1.37;1.27;;;;;;;;;;4995953;28;21003;-76
2024/01/24 10:22:53;;;;;;;0.53;0.53;;;;;;;;;;4974886;28;20190;-76
2024/01/24 10:25:18;;;;;;;1.90;1.30;;;;;;;;;;4991419;28;20206;-76
2024/01/24 10:27:43;;;;;;;0.40;0.40;;;;;;;;;;4981717;28;20167;-76
2024/01/24 10:30:10;;;;;;;1.17;0.60;;;;;;;;;;4990808;28;20195;-76
2024/01/24 10:32:37;;;;;;;0.90;0.83;;;;;;;;;;4991686;28;20165;-76
2024/01/24 10:35:05;;;;;;;1.30;1.07;;;;;;;;;;4992825;28;20214;-76
2024/01/24 10:37:31;;;;;;;0.40;0.40;;;;;;;;;;4992380;28;20241;-76
2024/01/24 10:39:57;;;;;;;0.40;0.40;;;;;;;;;;4974027;28;20263;-76
2024/01/24 10:42:25;;;;;;;0.50;0.40;;;;;;;;;;4976789;28;20275;-76
2024/01/24 10:44:51;;;;;;;0.23;0.23;;;;;;;;;;4992859;28;20197;-76
2024/01/24 10:47:17;;;;;;;0.20;0.20;;;;;;;;;;4991620;28;20189;-76
2024/01/24 10:49:43;;;;;;;0.40;0.40;;;;;;;;;;4994471;28;20176;-76
2024/01/24 10:52:09;;;;;;;0.30;0.30;;;;;;;;;;4992022;28;20183;-76
2024/01/24 10:54:34;;;;;;;0.43;0.40;;;;;;;;;;4974012;28;20232;-75
2024/01/24 10:57:02;;;;;;;0.20;0.20;;;;;;;;;;4975622;28;20194;-76
2024/01/24 10:59:31;;;;;;;0.47;0.47;;;;;;;;;;4993116;28;20230;-76
2024/01/24 11:01:56;;;;;;;0.40;0.40;;;;;;;;;;4985566;28;20186;-75
2024/01/24 11:04:22;;;;;;;0.10;0.10;;;;;;;;;;4995655;28;20191;-76
2024/01/24 11:06:51;;;;;;;0.40;0.40;;;;;;;;;;4973738;28;20204;-76
2024/01/24 11:09:26;;;;;;;0.90;0.70;;;;;;;;;;4976486;28;20290;-76
2024/01/24 11:11:55;;;;;;;0.30;0.30;;;;;;;;;;4986027;28;20227;-76
2024/01/24 11:14:30;;;;;;;0.20;0.20;;;;;;;;;;4975351;28;20233;-76
2024/01/24 11:16:57;;;;;;;0.47;0.43;;;;;;;;;;4973577;28;20208;-76
2024/01/24 11:19:22;;;;;;;0.63;0.63;;;;;;;;;;4978647;28;20187;-76
2024/01/24 11:21:52;;;;;;;0.63;0.63;;;;;;;;;;4989977;28;20181;-76
2024/01/24 11:24:53;;;;;;;0.43;0.43;;;;;;;;;;4991212;28;20237;-76
2024/01/24 11:27:32;;;;;;;0.60;0.60;;;;;;;;;;4914309;29;20179;-76
2024/01/24 11:29:59;;;;;;;0.47;0.47;;;;;;;;;;4934753;29;20190;-76
2024/01/24 11:32:43;;;;;;;0.67;0.60;;;;;;;;;;4906625;29;20225;-76
2024/01/24 11:35:26;;;;;;;0.30;0.30;;;;;;;;;;4921725;29;20202;-76
2024/01/24 11:37:53;;;;;;;0.83;0.63;;;;;;;;;;4924118;29;20184;-76
2024/01/24 11:40:21;;;;;;;3.03;1.17;;;;;;;;;;4912891;29;20272;-76
2024/01/24 11:42:53;;;;;;;2.27;1.10;;;;;;;;;;4910101;29;20216;-76
2024/01/24 11:45:19;;;;;;;1.57;1.00;;;;;;;;;;4911771;29;20234;-76
2024/01/24 11:47:45;;;;;;;0.70;0.70;;;;;;;;;;4941073;28;20213;-76
2024/01/24 11:50:11;;;;;;;1.00;0.90;;;;;;;;;;4927687;29;20178;-76
2024/01/24 11:52:36;;;;;;;1.83;0.70;;;;;;;;;;4914587;29;20178;-76
2024/01/24 11:55:02;;;;;;;1.10;0.80;;;;;;;;;;4935729;28;20200;-76
2024/01/24 11:57:28;;;;;;;2.93;1.27;;;;;;;;;;4926004;29;20250;-76
2024/01/24 11:59:53;;;;;;;1.37;0.80;;;;;;;;;;4924678;29;20185;-76
2024/01/24 12:02:19;;;;;;;1.23;0.80;;;;;;;;;;4986058;28;20251;-76
2024/01/24 12:04:44;;;;;;;1.10;1.00;;;;;;;;;;4974467;28;20196;-76
2024/01/24 12:07:09;;;;;;;0.90;0.57;;;;;;;;;;4989672;28;20185;-76
2024/01/24 12:09:35;;;;;;;1.30;0.90;;;;;;;;;;4988673;28;20355;-76
2024/01/24 12:12:00;;;;;;;2.10;0.80;;;;;;;;;;4974327;28;20274;-76
2024/01/24 12:14:25;;;;;;;1.80;0.70;;;;;;;;;;4990344;28;20180;-76
2024/01/24 12:16:53;;;;;;;1.20;1.10;;;;;;;;;;4975831;28;20177;-76
2024/01/24 12:19:18;;;;;;;4.87;1.40;;;;;;;;;;4970829;28;20181;-76
2024/01/24 12:21:44;;;;;;;2.17;1.43;;;;;;;;;;4991305;28;20181;-75
2024/01/24 12:24:09;;;;;;;4.17;1.53;;;;;;;;;;4972815;28;20210;-75
2024/01/24 12:26:39;;;;;;;1.13;0.90;;;;;;;;;;4990595;28;20174;-75
2024/01/24 12:29:04;;;;;;;5.70;1.40;;;;;;;;;;4973310;28;20204;-76
2024/01/24 12:31:30;;;;;;;1.83;1.10;;;;;;;;;;5006055;28;20177;-76
2024/01/24 12:33:55;;;;;;;3.30;1.27;;;;;;;;;;4989869;28;20182;-76
2024/01/24 12:36:22;;;;;;;7.30;1.50;;;;;;;;;;4973668;28;20176;-76
2024/01/24 12:38:47;;;;;;;3.07;1.50;;;;;;;;;;4988794;28;20174;-76
2024/01/24 12:41:12;;;;;;;2.23;1.43;;;;;;;;;;4996003;28;20176;-76
2024/01/24 12:43:37;;;;;;;5.10;1.27;;;;;;;;;;4972779;28;20224;-76
2024/01/24 12:46:07;;;;;;;3.03;1.10;;;;;;;;;;4973069;28;20204;-76
2024/01/24 12:48:32;;;;;;;3.00;1.50;;;;;;;;;;4991042;28;20191;-76
2024/01/24 12:50:57;;;;;;;1.47;1.20;;;;;;;;;;5001123;28;20174;-76
2024/01/24 12:53:23;;;;;;;4.73;1.37;;;;;;;;;;4976908;28;20188;-76
2024/01/24 12:55:48;;;;;;;6.33;1.77;;;;;;;;;;4993365;28;20176;-76
2024/01/24 12:58:13;;;;;;;3.80;1.60;;;;;;;;;;4976074;28;20272;-76
2024/01/24 13:00:38;;;;;;;3.20;1.47;;;;;;;;;;4975906;28;20181;-76
2024/01/24 13:03:05;;;;;;;3.27;1.63;;;;;;;;;;4975846;28;20188;-76
2024/01/24 13:05:30;;;;;;;4.07;2.00;;;;;;;;;;4976705;28;20200;-76
2024/01/24 13:07:55;;;;;;;1.40;1.00;;;;;;;;;;4978459;28;20193;-76
2024/01/24 13:10:20;;;;;;;2.43;1.50;;;;;;;;;;4997371;28;20220;-76
2024/01/24 13:12:46;;;;;;;3.93;1.63;;;;;;;;;;4992642;28;20202;-76
2024/01/24 13:15:11;;;;;;;3.77;1.90;;;;;;;;;;4976438;28;20180;-76
2024/01/24 13:17:37;;;;;;;5.80;1.60;;;;;;;;;;4992343;28;20183;-76
2024/01/24 13:20:05;;;;;;;4.80;1.63;;;;;;;;;;4994496;28;20208;-76
2024/01/24 13:22:33;;;;;;;1.60;1.10;;;;;;;;;;4992741;28;20169;-76
2024/01/24 13:24:58;;;;;;;2.37;1.20;;;;;;;;;;4975393;28;20224;-76
2024/01/24 13:27:23;;;;;;;5.97;1.70;;;;;;;;;;4977290;28;20258;-75
2024/01/24 13:29:48;;;;;;;6.07;1.93;;;;;;;;;;4999414;28;20277;-76
2024/01/24 13:32:13;;;;;;;4.43;1.60;;;;;;;;;;4977128;28;20216;-76
2024/01/24 13:34:39;;;;;;;5.40;2.13;;;;;;;;;;4995694;28;20178;-75
2024/01/24 13:37:04;;;;;;;4.77;1.63;;;;;;;;;;4975587;28;20174;-75
2024/01/24 13:39:29;;;;;;;2.90;1.30;;;;;;;;;;5000404;28;20180;-76
2024/01/24 13:41:54;;;;;;;3.00;1.57;;;;;;;;;;4993760;28;20191;-75
2024/01/24 13:44:20;;;;;;;6.43;2.17;;;;;;;;;;4976211;28;20205;-75
2024/01/24 13:46:46;;;;;;;5.77;1.67;;;;;;;;;;4992676;28;20180;-75
2024/01/24 13:49:11;;;;;;;6.67;3.03;;;;;;;;;;4978289;28;20182;-75
2024/01/24 13:51:37;;;;;;;3.73;1.73;;;;;;;;;;4993547;28;20174;-75
2024/01/24 13:54:02;;;;;;;2.43;1.60;;;;;;;;;;4994374;28;20182;-75
2024/01/24 13:56:27;;;;;;;4.53;1.67;;;;;;;;;;5004561;28;21143;-75
2024/01/24 13:58:52;;;;;;;5.23;2.27;;;;;;;;;;4975401;28;20177;-75
2024/01/24 14:01:18;;;;;;;4.73;1.70;;;;;;;;;;4992239;28;20214;-76
2024/01/24 14:03:43;;;;;;;3.90;1.63;;;;;;;;;;4992483;28;20201;-76
2024/01/24 14:06:08;;;;;;;15.17;6.63;;;;;;;;;;5002354;28;20196;-75
2024/01/24 14:08:36;;;;;;;2.77;1.53;;;;;;;;;;4991466;28;20215;-75
2024/01/24 14:11:03;;;;;;;3.60;1.43;;;;;;;;;;4980029;28;20228;-75
2024/01/24 14:13:28;;;;;;;4.93;1.93;;;;;;;;;;4980109;28;20189;-75
2024/01/24 14:15:53;;;;;;;4.90;1.93;;;;;;;;;;4979685;28;20188;-75
2024/01/24 14:18:19;;;;;;;4.83;1.50;;;;;;;;;;4996193;28;20238;-75
2024/01/24 14:20:44;;;;;;;3.87;1.93;;;;;;;;;;4995070;28;20177;-76
2024/01/24 14:23:10;;;;;;;4.33;2.10;;;;;;;;;;4977748;28;20186;-75
2024/01/24 14:25:35;;;;;;;7.17;1.67;;;;;;;;;;4974206;28;20294;-75
2024/01/24 14:28:00;;;;;;;8.60;2.03;;;;;;;;;;4994552;28;20311;-75
2024/01/24 14:30:25;;;;;;;4.60;2.23;;;;;;;;;;4979384;28;20235;-75
2024/01/24 14:32:51;;;;;;;2.83;1.50;;;;;;;;;;4993003;28;20181;-75
2024/01/24 14:35:16;;;;;;;3.63;1.70;;;;;;;;;;4997877;28;20300;-75